Time;durP1;ratioP1;P1;durP2;ratioP2;P2;SDS_P1;SDS_P2;PMS_P1;PMS_P2;Temp;Humidity;BMP_temperature;BMP_pressure;BME280_temperature;BME280_humidity;BME280_pressure;Samples;Min_cycle;Max_cycle;Signal;HPM_P1;HPM_P2
2022/04/23 00:01:06;;;;;;;14.87;12.13;;;;;;;15.18;48.46;99258.22;5085468;28;20214;-73
2022/04/23 00:03:35;;;;;;;17.37;11.97;;;;;;;15.04;48.95;99256.56;5082153;28;20233;-72
2022/04/23 00:06:03;;;;;;;16.77;11.60;;;;;;;15.00;48.98;99255.34;5081524;28;20207;-72
2022/04/23 00:08:31;;;;;;;17.03;11.80;;;;;;;15.06;49.13;99251.84;5082024;28;20597;-73
2022/04/23 00:10:59;;;;;;;14.20;11.37;;;;;;;15.09;48.92;99246.09;5081337;28;20232;-73
2022/04/23 00:13:27;;;;;;;15.10;12.60;;;;;;;15.01;49.23;99236.47;5080509;28;20306;-73
2022/04/23 00:15:55;;;;;;;17.33;11.60;;;;;;;15.01;48.99;99246.31;5081910;28;20202;-73
2022/04/23 00:18:24;;;;;;;18.33;12.13;;;;;;;14.96;49.38;99243.44;5082619;28;20202;-73
2022/04/23 00:20:52;;;;;;;17.83;12.50;;;;;;;14.85;49.21;99246.75;5081832;28;20306;-74
2022/04/23 00:23:20;;;;;;;14.40;11.17;;;;;;;14.76;49.57;99240.78;5081721;28;20303;-73
2022/04/23 00:25:51;;;;;;;17.77;12.53;;;;;;;14.71;49.95;99250.41;5082151;28;20223;-73
2022/04/23 00:28:18;;;;;;;17.20;11.77;;;;;;;14.66;50.18;99254.53;5078966;28;20198;-73
2022/04/23 00:30:46;;;;;;;17.00;12.30;;;;;;;14.69;50.06;99246.09;5082450;28;20307;-73
2022/04/23 00:33:14;;;;;;;17.60;13.27;;;;;;;14.66;50.04;99246.53;5080858;28;20614;-73
2022/04/23 00:35:44;;;;;;;18.13;12.13;;;;;;;14.62;50.16;99247.94;5083420;28;20209;-73
2022/04/23 00:38:12;;;;;;;18.30;12.90;;;;;;;14.68;50.37;99246.31;5080464;28;20723;-73
2022/04/23 00:40:40;;;;;;;16.57;11.87;;;;;;;14.67;49.98;99248.16;5084730;28;20329;-73
2022/04/23 00:43:12;;;;;;;16.40;12.43;;;;;;;14.69;49.88;99253.28;5081637;28;20230;-73
2022/04/23 00:45:41;;;;;;;17.07;12.27;;;;;;;14.63;50.13;99249.59;5080868;28;20226;-73
2022/04/23 00:48:08;;;;;;;16.13;12.93;;;;;;;14.67;50.14;99250.84;5080019;28;20218;-73
2022/04/23 00:50:36;;;;;;;15.13;12.20;;;;;;;14.69;50.06;99248.75;5080675;28;20206;-74
2022/04/23 00:53:12;;;;;;;17.33;12.03;;;;;;;14.68;49.97;99249.81;5080004;28;20738;-72
2022/04/23 00:55:40;;;;;;;15.97;11.60;;;;;;;14.48;50.23;99246.28;5078912;28;20241;-72
2022/04/23 00:58:07;;;;;;;18.07;11.97;;;;;;;14.48;50.41;99250.81;5081310;28;20652;-72
2022/04/23 01:00:40;;;;;;;18.23;12.03;;;;;;;14.49;50.37;99253.28;5078589;28;20288;-72
2022/04/23 01:03:08;;;;;;;17.23;13.03;;;;;;;14.52;50.45;99257.34;5081328;28;20671;-72
2022/04/23 01:05:36;;;;;;;14.10;11.60;;;;;;;14.49;50.50;99265.78;5080463;28;20226;-73
2022/04/23 01:08:06;;;;;;;17.93;12.10;;;;;;;14.49;50.42;99255.94;5080655;28;20232;-73
2022/04/23 01:10:34;;;;;;;16.63;12.27;;;;;;;14.49;50.47;99263.94;5079400;28;20205;-73
2022/04/23 01:13:02;;;;;;;15.67;11.73;;;;;;;14.43;50.98;99255.91;5080006;28;20214;-73
2022/04/23 01:15:30;;;;;;;18.30;11.93;;;;;;;14.37;51.03;99260.19;5079514;28;20270;-73
2022/04/23 01:17:58;;;;;;;16.63;11.57;;;;;;;14.37;50.68;99260.19;5081863;28;20224;-73
2022/04/23 01:20:27;;;;;;;16.17;11.60;;;;;;;14.32;51.07;99255.47;5080383;28;20210;-73
2022/04/23 01:22:55;;;;;;;18.27;12.67;;;;;;;14.27;51.25;99257.06;5080655;28;20213;-73
2022/04/23 01:25:23;;;;;;;15.47;12.27;;;;;;;14.17;51.41;99264.63;5080158;28;20617;-73
2022/04/23 01:27:52;;;;;;;18.37;12.67;;;;;;;14.09;51.84;99264.81;5083401;28;20212;-73
2022/04/23 01:30:20;;;;;;;15.33;12.03;;;;;;;13.99;52.01;99264.34;5080836;28;20222;-73
2022/04/23 01:32:47;;;;;;;16.47;11.90;;;;;;;13.91;52.29;99263.50;5079144;28;20639;-73
2022/04/23 01:35:15;;;;;;;15.23;11.57;;;;;;;13.91;52.40;99260.03;5078888;28;20212;-73
2022/04/23 01:37:44;;;;;;;17.17;11.93;;;;;;;13.91;52.25;99260.84;5081599;28;20215;-73
2022/04/23 01:40:12;;;;;;;17.60;11.90;;;;;;;13.92;52.16;99257.16;5080952;28;20520;-73
2022/04/23 01:42:40;;;;;;;15.27;11.63;;;;;;;13.93;52.57;99261.47;5083147;28;20254;-73
2022/04/23 01:45:08;;;;;;;20.03;11.73;;;;;;;14.02;52.14;99264.78;5080006;28;20240;-73
2022/04/23 01:47:36;;;;;;;15.30;12.20;;;;;;;14.08;52.20;99266.66;5081161;28;20203;-72
2022/04/23 01:50:05;;;;;;;15.23;10.90;;;;;;;13.98;52.36;99263.56;5080560;28;20719;-73
2022/04/23 01:52:32;;;;;;;13.90;10.90;;;;;;;14.01;52.16;99262.31;5081023;28;20348;-73
2022/04/23 01:55:01;;;;;;;14.73;11.37;;;;;;;13.99;52.47;99259.84;5080139;28;20241;-72
2022/04/23 01:57:29;;;;;;;16.77;11.40;;;;;;;14.05;52.33;99263.56;5078274;28;20244;-73
2022/04/23 01:59:57;;;;;;;13.40;10.97;;;;;;;14.07;52.43;99267.66;5080562;28;20210;-73
2022/04/23 02:02:24;;;;;;;16.47;11.60;;;;;;;14.11;52.18;99255.59;5080465;28;20215;-73
2022/04/23 02:04:52;;;;;;;17.30;11.87;;;;;;;14.12;52.08;99259.09;5084077;28;20668;-73
2022/04/23 02:07:22;;;;;;;19.87;12.17;;;;;;;14.09;52.27;99259.47;5084588;28;20206;-73
2022/04/23 02:09:49;;;;;;;19.40;11.33;;;;;;;14.08;52.12;99260.50;5087740;28;20227;-72
2022/04/23 02:12:18;;;;;;;15.20;11.60;;;;;;;14.09;52.27;99262.13;5084494;28;20734;-73
2022/04/23 02:14:46;;;;;;;14.73;11.50;;;;;;;14.12;52.59;99257.25;5084850;28;20318;-74
2022/04/23 02:17:14;;;;;;;17.80;11.23;;;;;;;14.09;52.44;99252.31;5081941;28;20231;-73
2022/04/23 02:19:42;;;;;;;16.63;12.43;;;;;;;14.07;52.65;99258.88;5082634;28;21385;-73
2022/04/23 02:22:10;;;;;;;14.40;10.93;;;;;;;14.10;52.46;99245.94;5083638;28;20688;-73
2022/04/23 02:24:37;;;;;;;14.60;11.57;;;;;;;14.00;52.84;99242.00;5084975;28;20235;-73
2022/04/23 02:27:06;;;;;;;15.03;11.47;;;;;;;13.92;52.94;99248.34;5085468;28;20240;-72
2022/04/23 02:29:35;;;;;;;16.20;11.83;;;;;;;13.98;52.78;99247.56;5083810;28;20209;-73
2022/04/23 02:32:03;;;;;;;14.53;11.30;;;;;;;13.96;53.07;99246.94;5082128;28;20269;-73
2022/04/23 02:34:31;;;;;;;17.27;12.40;;;;;;;13.97;53.09;99245.09;5086254;28;20241;-73
2022/04/23 02:36:58;;;;;;;18.87;12.20;;;;;;;13.96;53.29;99248.78;5084763;28;20216;-73
2022/04/23 02:39:26;;;;;;;15.20;11.93;;;;;;;13.80;53.70;99239.28;5085601;28;20209;-73
2022/04/23 02:41:54;;;;;;;15.93;12.87;;;;;;;13.76;54.28;99232.69;5083967;28;20213;-73
2022/04/23 02:44:21;;;;;;;16.63;12.27;;;;;;;13.82;53.83;99240.72;5083235;28;20245;-72
2022/04/23 02:46:52;;;;;;;16.33;12.30;;;;;;;13.82;54.04;99245.22;5087627;28;20315;-72
2022/04/23 02:49:19;;;;;;;17.83;12.33;;;;;;;13.80;54.24;99241.97;5079701;28;20265;-72
2022/04/23 02:51:47;;;;;;;18.23;13.53;;;;;;;13.77;54.50;99237.84;5081145;28;20269;-72
2022/04/23 02:54:15;;;;;;;17.27;12.70;;;;;;;13.72;54.62;99234.94;5082680;28;20243;-74
2022/04/23 02:56:45;;;;;;;19.17;12.80;;;;;;;13.73;54.57;99239.25;5081976;28;20275;-74
2022/04/23 02:59:13;;;;;;;18.17;12.43;;;;;;;13.76;54.61;99233.53;5080343;28;20210;-73
2022/04/23 03:01:40;;;;;;;18.50;12.90;;;;;;;13.81;54.54;99244.41;5079991;28;20305;-73
2022/04/23 03:04:10;;;;;;;17.20;12.63;;;;;;;13.83;54.47;99242.38;5081651;28;20211;-73
2022/04/23 03:06:40;;;;;;;15.70;12.03;;;;;;;13.79;54.54;99241.13;5083728;28;20331;-72
2022/04/23 03:09:08;;;;;;;16.40;12.87;;;;;;;13.71;54.93;99243.97;5083509;28;20215;-72
2022/04/23 03:11:35;;;;;;;17.50;12.50;;;;;;;13.64;54.96;99247.59;5082000;28;20210;-72
2022/04/23 03:14:04;;;;;;;18.73;13.50;;;;;;;13.63;54.79;99248.63;5083090;28;20560;-73
2022/04/23 03:16:31;;;;;;;16.87;13.20;;;;;;;13.60;55.17;99257.84;5081181;28;20204;-72
2022/04/23 03:19:00;;;;;;;18.50;13.17;;;;;;;13.59;55.46;99245.53;5084271;28;20234;-74
2022/04/23 03:21:29;;;;;;;19.30;13.80;;;;;;;13.57;55.51;99242.25;5079451;28;20206;-73
2022/04/23 03:23:57;;;;;;;17.37;13.33;;;;;;;13.54;55.58;99240.00;5082147;28;20303;-73
2022/04/23 03:26:24;;;;;;;18.17;12.97;;;;;;;13.50;55.64;99249.38;5078790;28;20347;-72
2022/04/23 03:28:52;;;;;;;18.20;13.33;;;;;;;13.47;56.08;99244.44;5081475;28;20214;-73
2022/04/23 03:31:20;;;;;;;15.70;12.70;;;;;;;13.47;55.71;99250.59;5082550;28;20211;-73
2022/04/23 03:33:47;;;;;;;18.97;13.30;;;;;;;13.48;55.66;99251.41;5084583;28;20312;-73
2022/04/23 03:36:16;;;;;;;21.57;14.93;;;;;;;13.49;56.09;99253.06;5085599;28;20243;-73
2022/04/23 03:38:46;;;;;;;20.77;13.97;;;;;;;13.44;56.20;99245.66;5083431;28;20245;-73
2022/04/23 03:41:14;;;;;;;20.03;13.37;;;;;;;13.50;56.09;99257.38;5084467;28;20252;-73
2022/04/23 03:43:42;;;;;;;20.73;14.30;;;;;;;13.48;55.92;99254.06;5086510;28;20242;-72
2022/04/23 03:46:09;;;;;;;19.50;13.93;;;;;;;13.49;56.04;99261.03;5085491;28;20413;-72
2022/04/23 03:48:37;;;;;;;20.60;14.90;;;;;;;13.50;56.17;99263.50;5085767;28;20671;-73
2022/04/23 03:51:05;;;;;;;24.90;15.50;;;;;;;13.44;56.38;99263.47;5081033;28;20298;-73
2022/04/23 03:53:34;;;;;;;22.70;15.03;;;;;;;13.41;56.56;99269.19;5086780;28;20202;-73
2022/04/23 03:56:04;;;;;;;18.97;14.33;;;;;;;13.33;56.71;99278.16;5084393;28;20350;-73
2022/04/23 03:58:31;;;;;;;19.77;14.60;;;;;;;13.27;57.16;99278.94;5082321;28;20264;-73
2022/04/23 04:00:59;;;;;;;18.50;14.53;;;;;;;13.27;57.13;99272.78;5087832;28;20354;-73
2022/04/23 04:03:27;;;;;;;20.10;14.37;;;;;;;13.19;57.27;99269.22;5085748;28;20702;-73
2022/04/23 04:05:55;;;;;;;18.43;14.60;;;;;;;13.01;57.66;99271.53;5083269;28;20211;-72
2022/04/23 04:08:23;;;;;;;18.17;14.03;;;;;;;12.92;57.92;99267.38;5085773;28;20246;-73
2022/04/23 04:10:51;;;;;;;19.67;14.57;;;;;;;12.82;58.56;99261.56;5085790;28;20207;-73
2022/04/23 04:13:20;;;;;;;21.87;15.13;;;;;;;12.81;58.58;99268.72;5082231;28;20214;-72
2022/04/23 04:15:49;;;;;;;21.13;14.83;;;;;;;12.89;58.44;99272.25;5085505;28;20211;-73
2022/04/23 04:18:17;;;;;;;22.50;15.20;;;;;;;12.94;58.50;99270.66;5086983;28;20218;-73
2022/04/23 04:20:48;;;;;;;20.67;14.43;;;;;;;13.05;58.11;99272.78;5087225;28;20205;-73
2022/04/23 04:23:16;;;;;;;19.23;14.20;;;;;;;13.04;58.33;99272.97;5083854;28;20238;-73
2022/04/23 04:25:44;;;;;;;18.90;13.33;;;;;;;13.00;58.29;99269.91;5085518;28;20621;-73
2022/04/23 04:28:12;;;;;;;17.90;13.53;;;;;;;13.06;58.12;99268.28;5085700;28;20276;-72
2022/04/23 04:33:26;;;;;;;20.13;15.40;;;;;;;13.11;58.66;99260.53;5084690;28;20210;-72
2022/04/23 04:35:54;;;;;;;29.30;14.83;;;;;;;13.12;58.69;99260.34;5085564;28;20238;-72
2022/04/23 04:38:22;;;;;;;18.57;13.67;;;;;;;13.11;58.62;99263.19;5085013;28;20203;-72
2022/04/23 04:40:51;;;;;;;20.63;15.13;;;;;;;13.16;58.55;99268.81;5085606;28;20226;-73
2022/04/23 04:43:19;;;;;;;23.83;15.10;;;;;;;13.15;58.78;99260.00;5080594;28;20210;-73
2022/04/23 04:45:51;;;;;;;19.43;14.13;;;;;;;13.13;58.93;99256.72;5082822;28;20642;-72
2022/04/23 04:48:19;;;;;;;26.27;15.93;;;;;;;13.07;59.16;99269.94;5084585;28;20230;-73
2022/04/23 04:50:46;;;;;;;22.37;15.17;;;;;;;13.04;58.79;99272.97;5083509;28;20217;-72
2022/04/23 04:53:14;;;;;;;19.23;13.63;;;;;;;13.03;59.32;99263.34;5083663;28;20229;-73
2022/04/23 04:55:42;;;;;;;21.77;14.80;;;;;;;12.94;59.79;99269.81;5085665;28;20235;-73
2022/04/23 04:58:10;;;;;;;19.83;14.87;;;;;;;12.99;59.55;99265.59;5086672;28;20625;-73
2022/04/23 05:00:37;;;;;;;20.90;15.40;;;;;;;13.08;59.19;99274.25;5083557;28;20655;-73
2022/04/23 05:03:06;;;;;;;20.80;14.80;;;;;;;13.12;59.39;99278.97;5085725;28;20695;-73
2022/04/23 05:05:34;;;;;;;20.03;14.03;;;;;;;13.19;59.50;99279.09;5085042;28;20198;-73
2022/04/23 05:08:02;;;;;;;19.93;15.67;;;;;;;13.18;59.28;99275.59;5080737;28;20233;-73
2022/04/23 05:10:30;;;;;;;24.40;14.50;;;;;;;13.15;59.66;99285.81;5082614;28;20208;-73
2022/04/23 05:12:57;;;;;;;17.10;13.70;;;;;;;13.15;59.55;99285.81;5082603;28;20206;-73
2022/04/23 05:15:25;;;;;;;20.03;14.20;;;;;;;13.20;59.54;99294.00;5085249;28;20209;-73
2022/04/23 05:17:54;;;;;;;18.30;13.90;;;;;;;13.21;59.79;99292.19;5083916;28;20209;-73
2022/04/23 05:20:23;;;;;;;17.53;12.63;;;;;;;13.23;59.50;99287.50;5079852;28;20210;-73
2022/04/23 05:22:51;;;;;;;18.77;14.37;;;;;;;13.29;59.74;99286.72;5076626;28;20203;-73
2022/04/23 05:25:19;;;;;;;18.70;13.60;;;;;;;13.32;59.82;99291.66;5078809;28;20257;-73
2022/04/23 05:27:46;;;;;;;19.40;14.17;;;;;;;13.34;59.43;99289.63;5080390;28;20235;-73
2022/04/23 05:30:14;;;;;;;18.57;13.60;;;;;;;13.38;59.94;99282.88;5078542;28;20215;-73
2022/04/23 05:32:42;;;;;;;18.40;13.17;;;;;;;13.46;59.53;99286.22;5078539;28;20300;-73
2022/04/23 05:35:11;;;;;;;18.50;13.73;;;;;;;13.53;59.92;99291.59;5081474;28;20464;-73
2022/04/23 05:37:40;;;;;;;15.30;12.07;;;;;;;13.59;59.31;99288.16;5079273;28;20703;-73
2022/04/23 05:40:09;;;;;;;18.53;13.40;;;;;;;13.65;59.70;99287.34;5085321;28;20714;-72
2022/04/23 05:42:37;;;;;;;15.63;12.20;;;;;;;13.70;59.32;99284.94;5087021;28;20210;-72
2022/04/23 05:45:06;;;;;;;16.37;11.80;;;;;;;13.77;59.23;99288.47;5083500;28;20298;-72
2022/04/23 05:47:33;;;;;;;18.60;12.83;;;;;;;13.84;58.82;99289.31;5083540;28;20223;-72
2022/04/23 05:50:01;;;;;;;16.43;13.40;;;;;;;13.91;58.66;99300.81;5082364;28;20218;-72
2022/04/23 05:52:29;;;;;;;18.70;11.93;;;;;;;13.98;58.66;99292.03;5081943;28;20242;-72
2022/04/23 05:54:58;;;;;;;20.00;12.07;;;;;;;13.99;58.89;99296.31;5083907;28;20246;-72
2022/04/23 05:57:26;;;;;;;14.73;11.43;;;;;;;14.00;58.92;99300.66;5082894;28;20197;-72
2022/04/23 05:59:53;;;;;;;16.77;12.93;;;;;;;14.04;58.63;99297.41;5082719;28;20199;-73
2022/04/23 06:02:21;;;;;;;22.73;13.30;;;;;;;14.10;58.67;99306.44;5086407;28;20701;-72
2022/04/23 06:04:49;;;;;;;17.53;11.97;;;;;;;14.12;58.28;99299.91;5086312;28;20267;-72
2022/04/23 06:07:17;;;;;;;14.43;11.97;;;;;;;14.14;58.65;99302.38;5082617;28;20276;-73
2022/04/23 06:09:45;;;;;;;13.73;10.90;;;;;;;14.09;58.83;99300.28;5082206;28;20919;-72
2022/04/23 06:12:14;;;;;;;15.47;11.67;;;;;;;14.09;58.73;99312.78;5082579;28;20657;-70
2022/04/23 06:14:44;;;;;;;13.93;11.00;;;;;;;14.15;58.73;99314.69;5084452;28;20210;-71
2022/04/23 06:17:12;;;;;;;13.10;10.60;;;;;;;14.20;58.38;99318.38;5078839;28;20235;-72
2022/04/23 06:19:41;;;;;;;15.57;10.90;;;;;;;14.22;58.63;99331.50;5089193;28;20213;-72
2022/04/23 06:22:09;;;;;;;15.67;11.27;;;;;;;14.25;58.70;99331.91;5084895;28;20552;-71
2022/04/23 06:24:37;;;;;;;13.80;10.97;;;;;;;14.31;58.39;99327.66;5085590;28;20217;-71
2022/04/23 06:27:05;;;;;;;12.80;10.37;;;;;;;14.31;58.58;99322.31;5084970;28;20642;-72
2022/04/23 06:29:39;;;;;;;13.43;10.90;;;;;;;14.36;58.34;99321.72;5079992;28;20219;-72
2022/04/23 06:32:08;;;;;;;14.20;10.30;;;;;;;14.39;58.30;99327.50;5083298;28;20363;-72
2022/04/23 06:34:37;;;;;;;12.77;10.10;;;;;;;14.44;58.29;99338.38;5085108;28;20570;-73
2022/04/23 06:37:06;;;;;;;15.50;11.82;;;;;;;14.55;57.85;99327.13;5076028;28;20441;-68
2022/04/23 06:39:34;;;;;;;14.33;11.53;;;;;;;14.55;57.90;99332.47;5082245;28;20234;-68
2022/04/23 06:42:02;;;;;;;13.30;10.70;;;;;;;14.53;58.71;99320.34;5081705;28;20241;-69
2022/04/23 06:44:30;;;;;;;12.30;10.10;;;;;;;14.60;58.28;99330.00;5089392;28;20301;-69
2022/04/23 06:46:59;;;;;;;12.57;10.70;;;;;;;14.60;58.28;99326.56;5085876;28;20207;-69
2022/04/23 06:49:27;;;;;;;14.67;10.43;;;;;;;14.65;58.28;99319.56;5088089;28;20300;-67
2022/04/23 06:51:55;;;;;;;14.10;10.97;;;;;;;14.72;58.51;99326.75;5082553;28;20206;-65
2022/04/23 06:54:24;;;;;;;12.27;10.60;;;;;;;14.76;58.58;99333.34;5080083;28;20643;-64
2022/04/23 06:56:53;;;;;;;23.33;12.23;;;;;;;14.82;58.61;99332.53;5081104;28;20571;-68
2022/04/23 06:59:20;;;;;;;14.00;11.50;;;;;;;14.90;58.59;99333.16;5081094;28;20652;-70
2022/04/23 07:01:48;;;;;;;12.90;10.70;;;;;;;14.96;58.26;99334.19;5081110;28;20222;-70
2022/04/23 07:04:17;;;;;;;12.73;10.30;;;;;;;14.89;58.46;99328.03;5080657;28;20214;-69
2022/04/23 07:06:45;;;;;;;14.40;10.60;;;;;;;14.97;58.14;99331.31;5082060;28;20249;-69
2022/04/23 07:09:13;;;;;;;16.27;9.73;;;;;;;14.97;58.13;99336.66;5077326;28;20227;-70
2022/04/23 07:11:41;;;;;;;13.57;10.87;;;;;;;15.02;57.99;99320.88;5081647;28;20217;-69
2022/04/23 07:14:08;;;;;;;13.17;9.83;;;;;;;15.16;57.86;99328.88;5083895;28;20458;-69
2022/04/23 07:16:36;;;;;;;12.73;9.50;;;;;;;15.22;57.59;99333.38;5081115;28;20208;-68
2022/04/23 07:19:04;;;;;;;10.67;9.03;;;;;;;15.31;57.25;99332.97;5085781;28;20202;-69
2022/04/23 07:21:34;;;;;;;9.13;7.40;;;;;;;15.40;56.85;99326.38;5087335;28;20467;-69
2022/04/23 07:24:05;;;;;;;9.40;7.37;;;;;;;15.52;55.99;99331.13;5087570;28;20217;-69
2022/04/23 07:26:36;;;;;;;8.90;7.33;;;;;;;15.49;55.62;99334.19;5086880;28;20353;-68
2022/04/23 07:29:05;;;;;;;7.77;6.27;;;;;;;15.63;54.76;99335.88;5085552;28;20465;-68
2022/04/23 07:31:33;;;;;;;9.93;6.67;;;;;;;15.58;54.26;99322.28;5083179;28;20268;-69
2022/04/23 07:39:34;;;;;;;6.30;5.20;;;;;;;15.89;52.97;99319.78;5086957;28;20234;-68
2022/04/23 07:42:02;;;;;;;6.70;5.30;;;;;;;15.85;53.30;99323.06;5085281;28;20268;-69
2022/04/23 07:44:29;;;;;;;8.87;5.70;;;;;;;15.87;53.30;99323.69;5083330;28;20653;-70
2022/04/23 07:46:57;;;;;;;10.97;5.67;;;;;;;15.91;53.46;99325.72;5086747;28;20210;-70
2022/04/23 07:49:28;;;;;;;5.23;4.60;;;;;;;15.88;53.81;99323.47;5087277;28;20288;-69
2022/04/23 07:51:58;;;;;;;5.57;4.20;;;;;;;15.98;53.35;99317.69;5084711;28;20195;-69
2022/04/23 07:54:26;;;;;;;7.60;4.47;;;;;;;16.11;52.78;99310.44;5088373;28;20585;-69
2022/04/23 07:56:53;;;;;;;6.27;4.83;;;;;;;16.27;52.70;99321.69;5087561;28;20209;-69
2022/04/23 07:59:22;;;;;;;8.20;4.80;;;;;;;16.30;52.25;99319.41;5086673;28;20213;-68
2022/04/23 08:01:50;;;;;;;6.70;5.17;;;;;;;16.39;51.83;99322.66;5087439;28;20225;-69
2022/04/23 08:04:18;;;;;;;6.10;4.33;;;;;;;16.51;51.64;99318.28;5087466;28;20202;-69
2022/04/23 08:06:45;;;;;;;7.23;4.60;;;;;;;16.45;51.01;99321.78;5088060;28;20544;-69
2022/04/23 08:09:14;;;;;;;6.13;4.67;;;;;;;16.42;51.73;99322.25;5085470;28;20251;-69
2022/04/23 08:11:42;;;;;;;6.03;4.50;;;;;;;16.60;51.73;99318.84;5079386;28;20211;-69
2022/04/23 08:14:10;;;;;;;7.33;4.40;;;;;;;16.73;51.12;99322.28;5086139;28;20238;-69
2022/04/23 08:16:38;;;;;;;6.10;3.93;;;;;;;17.02;49.95;99320.88;5088149;28;20203;-69
2022/04/23 08:19:08;;;;;;;5.00;3.73;;;;;;;17.10;49.83;99325.94;5086603;28;20207;-69
2022/04/23 08:21:36;;;;;;;6.43;3.57;;;;;;;17.03;49.22;99325.19;5088518;28;20205;-69
2022/04/23 08:24:04;;;;;;;5.50;4.03;;;;;;;16.96;49.81;99320.91;5085272;28;20288;-69
2022/04/23 08:26:33;;;;;;;5.27;3.93;;;;;;;16.91;50.62;99321.56;5087677;28;20203;-69
2022/04/23 08:32:01;;;;;;;5.63;3.57;;;;;;;17.03;50.14;99314.47;5041502;28;20563;-69
2022/04/23 08:34:29;;;;;;;4.57;3.63;;;;;;;17.15;49.90;99323.44;5044095;28;20287;-69
2022/04/23 08:36:58;;;;;;;5.87;3.47;;;;;;;17.29;49.23;99322.28;5057889;28;20207;-69
2022/04/23 08:39:26;;;;;;;5.30;3.40;;;;;;;17.38;49.13;99317.47;5086253;28;20207;-69
2022/04/23 08:41:55;;;;;;;3.97;2.80;;;;;;;17.52;49.83;99320.84;5081790;28;20207;-69
2022/04/23 08:44:23;;;;;;;4.17;3.00;;;;;;;17.63;48.31;99314.78;5086455;28;20302;-69
2022/04/23 08:46:54;;;;;;;4.07;3.03;;;;;;;17.68;49.19;99321.13;5088879;28;20313;-68
2022/04/23 08:49:29;;;;;;;5.13;3.50;;;;;;;17.85;47.52;99324.06;5086416;28;20222;-69
2022/04/23 08:52:09;;;;;;;3.93;3.23;;;;;;;17.68;47.82;99318.44;5084892;28;20709;-69
2022/04/23 08:54:38;;;;;;;3.87;2.90;;;;;;;17.50;48.26;99322.94;5086051;28;20241;-69
2022/04/23 08:57:07;;;;;;;4.20;3.37;;;;;;;17.41;48.93;99322.41;5086822;28;20205;-70
2022/04/23 08:59:35;;;;;;;4.87;3.43;;;;;;;17.35;48.66;99315.22;5086911;28;20209;-69
2022/04/23 09:02:10;;;;;;;5.93;3.47;;;;;;;17.34;48.09;99318.13;5087640;28;20210;-70
2022/04/23 09:04:42;;;;;;;5.03;3.23;;;;;;;17.19;48.37;99318.47;5086875;28;20216;-70
2022/04/23 09:07:19;;;;;;;4.30;2.90;;;;;;;17.02;49.30;99326.22;5085545;28;20213;-69
2022/04/23 09:09:49;;;;;;;4.07;2.90;;;;;;;16.99;49.40;99323.16;5081947;28;20233;-68
2022/04/23 09:12:19;;;;;;;4.13;3.10;;;;;;;16.90;49.61;99323.41;5084479;28;20202;-69
2022/04/23 09:14:48;;;;;;;4.37;3.27;;;;;;;16.92;49.88;99331.22;5089883;28;20294;-69
2022/04/23 09:25:41;;;;;;;4.90;3.43;;;;;;;16.93;49.06;99317.63;5091357;28;20679;-69
2022/04/23 09:28:18;;;;;;;5.30;3.60;;;;;;;16.93;48.90;99319.50;5089584;28;20278;-70
2022/04/23 09:30:47;;;;;;;5.47;3.63;;;;;;;16.91;49.26;99317.03;5088033;28;20226;-69
2022/04/23 09:33:15;;;;;;;4.67;3.57;;;;;;;16.95;49.22;99319.28;5090676;28;20613;-68
2022/04/23 09:35:53;;;;;;;7.30;3.43;;;;;;;16.93;49.28;99314.94;5090492;28;20264;-69
2022/04/23 09:38:21;;;;;;;6.13;3.53;;;;;;;17.01;48.50;99316.53;5090851;28;20206;-69
2022/04/23 09:40:52;;;;;;;7.27;3.83;;;;;;;17.01;48.25;99321.06;5091578;28;20207;-69
2022/04/23 09:43:29;;;;;;;4.60;3.80;;;;;;;16.84;49.31;99318.94;5090398;28;20210;-69
2022/04/23 09:46:02;;;;;;;4.43;3.43;;;;;;;16.86;49.29;99322.22;5090294;28;20202;-70
2022/04/23 09:48:39;;;;;;;6.17;3.47;;;;;;;16.95;49.22;99314.75;5089680;28;20198;-70
2022/04/23 09:51:20;;;;;;;4.40;3.30;;;;;;;17.03;49.09;99321.69;5088904;28;20320;-69
2022/04/23 09:53:48;;;;;;;8.60;3.80;;;;;;;17.16;48.40;99321.56;5085859;28;20231;-69
2022/04/23 09:56:19;;;;;;;7.23;3.63;;;;;;;17.11;48.86;99314.19;5089494;28;20269;-71
2022/04/23 09:58:48;;;;;;;6.40;4.00;;;;;;;17.16;48.59;99322.38;5085307;28;20309;-69
2022/04/23 10:01:19;;;;;;;4.83;3.90;;;;;;;17.35;48.22;99315.22;5088704;28;20302;-69
2022/04/23 10:03:53;;;;;;;6.00;3.33;;;;;;;17.42;48.29;99315.16;5089548;28;20617;-69
2022/04/23 10:06:22;;;;;;;5.30;3.57;;;;;;;17.37;48.62;99320.38;5086004;28;20229;-70
2022/04/23 10:08:52;;;;;;;5.83;3.43;;;;;;;17.52;48.24;99319.00;5089712;28;20256;-69
2022/04/23 10:11:25;;;;;;;5.60;3.80;;;;;;;17.58;47.56;99325.34;5089077;28;20680;-69
2022/04/23 10:13:59;;;;;;;5.37;4.00;;;;;;;17.80;46.59;99310.50;5085325;28;20636;-69
2022/04/23 10:16:29;;;;;;;5.00;3.63;;;;;;;17.90;46.45;99315.34;5103213;28;20206;-70
2022/04/23 10:18:58;;;;;;;5.57;3.80;;;;;;;17.93;46.50;99318.41;5089377;28;20639;-70
2022/04/23 10:21:31;;;;;;;5.50;3.70;;;;;;;17.91;46.21;99320.47;5088055;28;20283;-69
2022/04/23 10:24:06;;;;;;;6.37;3.80;;;;;;;17.95;46.31;99315.47;5090669;28;20210;-70
2022/04/23 10:26:39;;;;;;;7.80;4.33;;;;;;;17.97;46.20;99321.44;5089886;28;20194;-69
2022/04/23 10:29:14;;;;;;;5.80;4.30;;;;;;;18.07;45.11;99319.06;5088760;28;20237;-69
2022/04/23 10:31:42;;;;;;;5.43;3.50;;;;;;;17.89;45.98;99311.84;5091003;28;20277;-69
2022/04/23 10:34:33;;;;;;;5.40;3.60;;;;;;;17.70;46.30;99315.53;5090531;28;20235;-70
2022/04/23 10:37:14;;;;;;;7.77;3.93;;;;;;;17.64;46.60;99314.59;5090064;28;20294;-69
2022/04/23 10:39:42;;;;;;;7.77;3.70;;;;;;;17.60;47.17;99323.25;5088321;28;20692;-70
2022/04/23 10:42:13;;;;;;;6.10;3.80;;;;;;;17.53;47.44;99307.22;5087558;28;20297;-69
2022/04/23 10:44:43;;;;;;;7.03;4.07;;;;;;;17.72;46.36;99309.97;5086435;28;20207;-71
2022/04/23 10:47:16;;;;;;;5.67;4.20;;;;;;;17.64;46.60;99309.22;5088452;28;20209;-69
2022/04/23 10:49:44;;;;;;;5.13;3.47;;;;;;;17.67;46.82;99314.16;5088150;28;20348;-69
2022/04/23 10:52:36;;;;;;;8.17;3.83;;;;;;;17.67;46.34;99310.66;5087415;28;20259;-71
2022/04/23 10:55:04;;;;;;;5.37;4.10;;;;;;;17.61;46.13;99312.31;5087596;28;20771;-70
2022/04/23 10:57:32;;;;;;;5.80;4.17;;;;;;;17.67;46.50;99306.09;5088951;28;20210;-70
2022/04/23 11:00:11;;;;;;;4.97;3.60;;;;;;;17.66;46.51;99298.28;5088353;28;20202;-69
2022/04/23 11:02:39;;;;;;;6.37;4.50;;;;;;;17.74;45.97;99307.88;5085593;28;20203;-70
2022/04/23 11:14:08;;;;;;;6.43;4.40;;;;;;;17.85;46.08;99299.13;5089702;28;20214;-69
2022/04/23 11:16:36;;;;;;;7.10;4.13;;;;;;;18.15;45.54;99294.63;5091041;28;20615;-69
2022/04/23 11:19:07;;;;;;;5.40;4.00;;;;;;;18.28;44.68;99294.47;5088930;28;20229;-69
2022/04/23 11:21:35;;;;;;;4.67;3.73;;;;;;;18.26;44.53;99285.81;5088908;28;20206;-69
2022/04/23 11:24:03;;;;;;;6.03;3.80;;;;;;;18.22;44.70;99279.25;5088875;28;20570;-69
2022/04/23 11:26:44;;;;;;;4.73;3.80;;;;;;;18.05;45.56;99284.41;5087204;28;20203;-69
2022/04/23 11:29:13;;;;;;;6.03;3.77;;;;;;;18.07;45.20;99294.91;5085935;28;20202;-69
2022/04/23 11:31:41;;;;;;;8.83;3.97;;;;;;;17.94;45.54;99277.13;5087846;28;20231;-70
2022/04/23 11:34:09;;;;;;;4.63;3.70;;;;;;;17.88;45.60;99287.94;5088018;28;20211;-69
2022/04/23 11:36:37;;;;;;;5.47;3.40;;;;;;;17.87;45.62;99287.09;5082732;28;20209;-68
2022/04/23 11:39:08;;;;;;;4.53;3.13;;;;;;;17.73;45.45;99277.56;5083983;28;20209;-69
2022/04/23 11:41:38;;;;;;;4.73;3.50;;;;;;;17.65;46.24;99278.69;5085872;28;20200;-69
2022/04/23 11:44:15;;;;;;;5.67;3.40;;;;;;;17.72;46.32;99283.97;5087126;28;20252;-69
2022/04/23 11:46:44;;;;;;;9.07;3.80;;;;;;;17.74;45.52;99278.41;5088829;28;20630;-69
2022/04/23 11:49:25;;;;;;;4.70;3.50;;;;;;;17.68;46.23;99280.09;5088341;28;20203;-69
2022/04/23 11:51:59;;;;;;;6.80;3.70;;;;;;;17.75;45.78;99277.38;5087294;28;20632;-69
2022/04/23 11:54:33;;;;;;;6.20;4.10;;;;;;;17.77;45.03;99280.63;5082952;28;20277;-69
2022/04/23 11:57:01;;;;;;;6.07;3.20;;;;;;;17.63;45.24;99277.28;5087011;28;20209;-70
2022/04/23 11:59:37;;;;;;;4.70;3.33;;;;;;;17.47;45.54;99270.59;5086974;28;20202;-69
2022/04/23 12:02:07;;;;;;;5.07;3.57;;;;;;;17.45;46.15;99270.00;5079542;28;20230;-69